sensor_id;sensor_type;location;lat;lon;timestamp;pressure;altitude;pressure_sealevel;temperature;humidity
49461;BME280;35355;49.198;-0.368;2022-11-03T00:02:02;100589.16;;;13.71;81.84
49461;BME280;35355;49.198;-0.368;2022-11-03T00:04:27;100591.31;;;13.74;81.37
49461;BME280;35355;49.198;-0.368;2022-11-03T00:06:54;100591.88;;;13.76;81.55
49461;BME280;35355;49.198;-0.368;2022-11-03T00:09:20;100578.16;;;13.76;81.78
49461;BME280;35355;49.198;-0.368;2022-11-03T00:11:47;100568.81;;;13.77;81.53
49461;BME280;35355;49.198;-0.368;2022-11-03T00:14:13;100572.91;;;13.80;81.73
49461;BME280;35355;49.198;-0.368;2022-11-03T00:16:39;100555.63;;;13.79;81.65
49461;BME280;35355;49.198;-0.368;2022-11-03T00:19:05;100555.63;;;13.79;81.59
49461;BME280;35355;49.198;-0.368;2022-11-03T00:21:31;100552.59;;;13.81;81.69
49461;BME280;35355;49.198;-0.368;2022-11-03T00:23:57;100552.59;;;13.81;81.63
49461;BME280;35355;49.198;-0.368;2022-11-03T00:26:24;100553.13;;;13.83;81.48
49461;BME280;35355;49.198;-0.368;2022-11-03T00:28:58;100540.25;;;13.83;81.63
49461;BME280;35355;49.198;-0.368;2022-11-03T00:31:32;100541.06;;;13.84;81.59
49461;BME280;35355;49.198;-0.368;2022-11-03T00:33:58;100543.78;;;13.84;81.59
49461;BME280;35355;49.198;-0.368;2022-11-03T00:36:30;100538.03;;;13.85;81.43
49461;BME280;35355;49.198;-0.368;2022-11-03T00:38:56;100524.88;;;13.82;81.61
49461;BME280;35355;49.198;-0.368;2022-11-03T00:41:23;100528.44;;;13.83;81.54
49461;BME280;35355;49.198;-0.368;2022-11-03T00:43:50;100522.13;;;13.82;81.55
49461;BME280;35355;49.198;-0.368;2022-11-03T00:46:16;100518.03;;;13.80;81.37
49461;BME280;35355;49.198;-0.368;2022-11-03T00:48:42;100511.75;;;13.79;81.60
49461;BME280;35355;49.198;-0.368;2022-11-03T00:51:19;100512.56;;;13.80;81.44
49461;BME280;35355;49.198;-0.368;2022-11-03T00:53:52;100504.63;;;13.78;81.71
49461;BME280;35355;49.198;-0.368;2022-11-03T00:56:26;100505.19;;;13.75;81.56
49461;BME280;35355;49.198;-0.368;2022-11-03T00:58:53;100491.19;;;13.77;81.67
49461;BME280;35355;49.198;-0.368;2022-11-03T01:01:24;100489.25;;;13.77;81.72
49461;BME280;35355;49.198;-0.368;2022-11-03T01:03:52;100478.28;;;13.77;81.71
49461;BME280;35355;49.198;-0.368;2022-11-03T01:06:38;100472.28;;;13.75;81.88
49461;BME280;35355;49.198;-0.368;2022-11-03T01:14:24;100452.56;;;13.73;81.77
49461;BME280;35355;49.198;-0.368;2022-11-03T01:16:50;100466.50;;;13.77;81.85
49461;BME280;35355;49.198;-0.368;2022-11-03T01:19:15;100453.59;;;13.77;82.00
49461;BME280;35355;49.198;-0.368;2022-11-03T01:21:42;100444.84;;;13.75;82.05
49461;BME280;35355;49.198;-0.368;2022-11-03T01:24:07;100433.88;;;13.75;81.97
49461;BME280;35355;49.198;-0.368;2022-11-03T01:26:33;100428.09;;;13.77;82.27
49461;BME280;35355;49.198;-0.368;2022-11-03T01:28:59;100422.63;;;13.77;82.16
49461;BME280;35355;49.198;-0.368;2022-11-03T01:31:26;100425.06;;;13.78;82.09
49461;BME280;35355;49.198;-0.368;2022-11-03T01:33:53;100409.72;;;13.77;82.12
49461;BME280;35355;49.198;-0.368;2022-11-03T01:36:19;100417.38;;;13.80;82.09
49461;BME280;35355;49.198;-0.368;2022-11-03T01:38:45;100419.00;;;13.81;81.97
49461;BME280;35355;49.198;-0.368;2022-11-03T01:41:14;100408.31;;;13.80;81.97
49461;BME280;35355;49.198;-0.368;2022-11-03T01:43:40;100410.75;;;13.81;82.04
49461;BME280;35355;49.198;-0.368;2022-11-03T01:46:26;100415.66;;;13.84;82.00
49461;BME280;35355;49.198;-0.368;2022-11-03T01:49:11;100421.16;;;13.84;82.04
49461;BME280;35355;49.198;-0.368;2022-11-03T01:51:40;100412.63;;;13.86;81.93
49461;BME280;35355;49.198;-0.368;2022-11-03T01:54:10;100404.09;;;13.88;82.04
49461;BME280;35355;49.198;-0.368;2022-11-03T01:56:40;100393.41;;;13.86;81.90
49461;BME280;35355;49.198;-0.368;2022-11-03T01:59:08;100394.78;;;13.89;81.90
49461;BME280;35355;49.198;-0.368;2022-11-03T02:01:34;100389.81;;;13.91;81.75
49461;BME280;35355;49.198;-0.368;2022-11-03T02:04:04;100392.28;;;13.92;81.81
49461;BME280;35355;49.198;-0.368;2022-11-03T02:06:33;100387.09;;;13.91;81.81
49461;BME280;35355;49.198;-0.368;2022-11-03T02:09:07;100392.56;;;13.91;81.87
49461;BME280;35355;49.198;-0.368;2022-11-03T02:11:34;100394.19;;;13.92;81.73
49461;BME280;35355;49.198;-0.368;2022-11-03T02:14:18;100365.41;;;13.89;81.79
49461;BME280;35355;49.198;-0.368;2022-11-03T02:16:53;100361.56;;;13.90;81.82
49461;BME280;35355;49.198;-0.368;2022-11-03T02:19:46;100355.78;;;13.92;81.81
49461;BME280;35355;49.198;-0.368;2022-11-03T02:22:28;100346.75;;;13.91;81.87
49461;BME280;35355;49.198;-0.368;2022-11-03T02:27:27;100338.22;;;13.93;82.02
49461;BME280;35355;49.198;-0.368;2022-11-03T02:29:53;100332.44;;;13.94;82.04
49461;BME280;35355;49.198;-0.368;2022-11-03T02:32:22;100330.19;;;13.96;81.87
49461;BME280;35355;49.198;-0.368;2022-11-03T02:34:54;100307.13;;;13.97;81.75
49461;BME280;35355;49.198;-0.368;2022-11-03T02:37:27;100304.09;;;13.99;81.92
49461;BME280;35355;49.198;-0.368;2022-11-03T02:39:59;100288.75;;;13.98;81.76
49461;BME280;35355;49.198;-0.368;2022-11-03T02:42:26;100283.25;;;13.98;81.78
49461;BME280;35355;49.198;-0.368;2022-11-03T02:44:54;100279.69;;;13.97;81.79
49461;BME280;35355;49.198;-0.368;2022-11-03T02:47:22;100276.66;;;13.99;81.79
49461;BME280;35355;49.198;-0.368;2022-11-03T02:49:52;100284.91;;;13.99;81.94
49461;BME280;35355;49.198;-0.368;2022-11-03T02:58:09;100281.34;;;13.98;81.75
49461;BME280;35355;49.198;-0.368;2022-11-03T03:00:47;100269.22;;;13.99;81.67
49461;BME280;35355;49.198;-0.368;2022-11-03T03:03:27;100262.94;;;13.99;81.59
49461;BME280;35355;49.198;-0.368;2022-11-03T03:06:08;100251.97;;;13.99;81.74
49461;BME280;35355;49.198;-0.368;2022-11-03T03:08:40;100254.41;;;14.00;81.61
49461;BME280;35355;49.198;-0.368;2022-11-03T03:11:10;100237.94;;;14.00;81.70
49461;BME280;35355;49.198;-0.368;2022-11-03T03:13:37;100240.41;;;14.02;81.60
49461;BME280;35355;49.198;-0.368;2022-11-03T03:16:11;100239.00;;;14.04;81.76
49461;BME280;35355;49.198;-0.368;2022-11-03T03:19:02;100237.06;;;14.05;81.64
49461;BME280;35355;49.198;-0.368;2022-11-03T03:21:37;100221.41;;;14.06;81.74
49461;BME280;35355;49.198;-0.368;2022-11-03T03:24:11;100208.81;;;14.04;81.81
49461;BME280;35355;49.198;-0.368;2022-11-03T03:26:43;100212.06;;;14.07;81.69
49461;BME280;35355;49.198;-0.368;2022-11-03T03:29:16;100199.97;;;14.08;81.52
49461;BME280;35355;49.198;-0.368;2022-11-03T03:31:46;100198.03;;;14.08;81.60
49461;BME280;35355;49.198;-0.368;2022-11-03T03:34:15;100195.28;;;14.08;81.60
49461;BME280;35355;49.198;-0.368;2022-11-03T03:36:45;100200.28;;;14.06;81.45
49461;BME280;35355;49.198;-0.368;2022-11-03T03:39:13;100192.53;;;14.08;81.61
49461;BME280;35355;49.198;-0.368;2022-11-03T03:41:41;100183.81;;;14.06;81.41
49461;BME280;35355;49.198;-0.368;2022-11-03T03:44:09;100194.47;;;14.08;81.63
49461;BME280;35355;49.198;-0.368;2022-11-03T03:46:39;100190.09;;;14.07;81.40
49461;BME280;35355;49.198;-0.368;2022-11-03T03:49:06;100195.88;;;14.05;81.11
49461;BME280;35355;49.198;-0.368;2022-11-03T03:51:32;100184.91;;;14.05;81.14
49461;BME280;35355;49.198;-0.368;2022-11-03T03:53:58;100186.03;;;14.04;81.22
49461;BME280;35355;49.198;-0.368;2022-11-03T03:56:30;100170.38;;;14.04;80.94
49461;BME280;35355;49.198;-0.368;2022-11-03T03:58:57;100172.91;;;14.01;80.80
49461;BME280;35355;49.198;-0.368;2022-11-03T04:01:22;100172.91;;;14.01;80.99
49461;BME280;35355;49.198;-0.368;2022-11-03T04:03:48;100183.88;;;14.01;80.86
49461;BME280;35355;49.198;-0.368;2022-11-03T04:06:13;100174.53;;;14.02;80.77
49461;BME280;35355;49.198;-0.368;2022-11-03T04:08:39;100162.75;;;14.01;80.88
49461;BME280;35355;49.198;-0.368;2022-11-03T04:11:04;100163.56;;;14.02;80.55
49461;BME280;35355;49.198;-0.368;2022-11-03T04:13:48;100156.22;;;13.97;80.88
49461;BME280;35355;49.198;-0.368;2022-11-03T04:16:32;100131.03;;;13.95;80.47
49461;BME280;35355;49.198;-0.368;2022-11-03T04:19:16;100131.84;;;13.96;80.23
49461;BME280;35355;49.198;-0.368;2022-11-03T04:22:00;100120.88;;;13.96;80.58
49461;BME280;35355;49.198;-0.368;2022-11-03T04:24:42;100117.63;;;13.94;80.28
49461;BME280;35355;49.198;-0.368;2022-11-03T04:27:31;100117.63;;;13.94;80.36
49461;BME280;35355;49.198;-0.368;2022-11-03T04:30:16;100109.38;;;13.94;80.31
49461;BME280;35355;49.198;-0.368;2022-11-03T04:32:44;100110.50;;;13.93;80.27
49461;BME280;35355;49.198;-0.368;2022-11-03T04:37:43;100098.72;;;13.92;79.88
49461;BME280;35355;49.198;-0.368;2022-11-03T04:40:14;100098.72;;;13.92;79.77
49461;BME280;35355;49.198;-0.368;2022-11-03T04:42:40;100097.88;;;13.92;79.91
49461;BME280;35355;49.198;-0.368;2022-11-03T04:47:38;100090.78;;;13.91;79.86
49461;BME280;35355;49.198;-0.368;2022-11-03T04:50:14;100080.59;;;13.91;80.00
49461;BME280;35355;49.198;-0.368;2022-11-03T04:52:39;100054.28;;;13.90;79.63
49461;BME280;35355;49.198;-0.368;2022-11-03T04:55:07;100044.94;;;13.91;79.46
49461;BME280;35355;49.198;-0.368;2022-11-03T04:57:34;100046.59;;;13.92;79.38
49461;BME280;35355;49.198;-0.368;2022-11-03T04:59:59;100033.66;;;13.93;79.45
49461;BME280;35355;49.198;-0.368;2022-11-03T05:02:28;100036.41;;;13.93;79.42
49461;BME280;35355;49.198;-0.368;2022-11-03T05:04:54;100049.03;;;13.94;79.36
49461;BME280;35355;49.198;-0.368;2022-11-03T05:07:34;100054.50;;;13.94;79.59
49461;BME280;35355;49.198;-0.368;2022-11-03T05:10:00;100031.53;;;13.90;78.96
49461;BME280;35355;49.198;-0.368;2022-11-03T05:12:28;100041.41;;;13.91;79.22
49461;BME280;35355;49.198;-0.368;2022-11-03T05:14:53;100033.44;;;13.89;78.92
49461;BME280;35355;49.198;-0.368;2022-11-03T05:17:24;100035.91;;;13.91;79.34
49461;BME280;35355;49.198;-0.368;2022-11-03T05:41:24;99975.19;;;13.12;79.50
49461;BME280;35355;49.198;-0.368;2022-11-03T05:44:01;99966.97;;;13.12;79.76
49461;BME280;35355;49.198;-0.368;2022-11-03T05:46:30;99959.75;;;13.16;79.97
49461;BME280;35355;49.198;-0.368;2022-11-03T05:49:00;99946.50;;;13.24;79.85
49461;BME280;35355;49.198;-0.368;2022-11-03T05:51:38;99943.69;;;13.29;79.87
49461;BME280;35355;49.198;-0.368;2022-11-03T05:54:32;99929.91;;;13.34;79.89
49461;BME280;35355;49.198;-0.368;2022-11-03T05:56:57;99919.38;;;13.41;79.90
49461;BME280;35355;49.198;-0.368;2022-11-03T05:59:24;99920.41;;;13.45;79.93
49461;BME280;35355;49.198;-0.368;2022-11-03T06:01:52;99929.06;;;13.53;79.77
49461;BME280;35355;49.198;-0.368;2022-11-03T06:04:20;99934.44;;;13.58;79.73
49461;BME280;35355;49.198;-0.368;2022-11-03T06:06:51;99934.13;;;13.59;79.60
49461;BME280;35355;49.198;-0.368;2022-11-03T06:09:21;99927.75;;;13.64;79.57
49461;BME280;35355;49.198;-0.368;2022-11-03T06:11:48;99931.03;;;13.66;79.23
49461;BME280;35355;49.198;-0.368;2022-11-03T06:14:25;99932.03;;;13.70;79.51
49461;BME280;35355;49.198;-0.368;2022-11-03T06:19:36;99925.13;;;13.73;79.34
49461;BME280;35355;49.198;-0.368;2022-11-03T06:24:36;99910.31;;;13.74;79.40
49461;BME280;35355;49.198;-0.368;2022-11-03T06:27:02;99896.28;;;13.75;79.34
49461;BME280;35355;49.198;-0.368;2022-11-03T06:29:29;99887.75;;;13.77;79.21
49461;BME280;35355;49.198;-0.368;2022-11-03T06:31:56;99886.63;;;13.78;79.15
49461;BME280;35355;49.198;-0.368;2022-11-03T06:34:42;99886.34;;;13.79;79.21
49461;BME280;35355;49.198;-0.368;2022-11-03T06:37:21;99878.09;;;13.79;79.26
49461;BME280;35355;49.198;-0.368;2022-11-03T06:39:48;99869.88;;;13.79;79.29
49461;BME280;35355;49.198;-0.368;2022-11-03T06:42:14;99860.53;;;13.80;79.38
49461;BME280;35355;49.198;-0.368;2022-11-03T06:44:43;99852.31;;;13.80;79.30
49461;BME280;35355;49.198;-0.368;2022-11-03T06:47:23;99850.06;;;13.82;79.28
49461;BME280;35355;49.198;-0.368;2022-11-03T06:49:50;99849.56;;;13.80;79.34
49461;BME280;35355;49.198;-0.368;2022-11-03T06:55:11;99843.47;;;13.83;79.26
49461;BME280;35355;49.198;-0.368;2022-11-03T06:57:42;99846.22;;;13.83;79.35
49461;BME280;35355;49.198;-0.368;2022-11-03T07:00:24;99843.97;;;13.85;79.46
49461;BME280;35355;49.198;-0.368;2022-11-03T07:02:58;99835.75;;;13.85;79.43
49461;BME280;35355;49.198;-0.368;2022-11-03T07:05:27;99827.50;;;13.85;79.20
49461;BME280;35355;49.198;-0.368;2022-11-03T07:07:59;99819.28;;;13.85;79.39
49461;BME280;35355;49.198;-0.368;2022-11-03T07:10:28;99817.03;;;13.88;79.45
49461;BME280;35355;49.198;-0.368;2022-11-03T07:12:55;99822.53;;;13.88;79.65
49461;BME280;35355;49.198;-0.368;2022-11-03T07:15:38;99810.75;;;13.87;79.43
49461;BME280;35355;49.198;-0.368;2022-11-03T07:18:17;99811.84;;;13.86;79.38
49461;BME280;35355;49.198;-0.368;2022-11-03T07:20:44;99805.25;;;13.87;79.40
49461;BME280;35355;49.198;-0.368;2022-11-03T07:23:12;99803.84;;;13.90;79.36
49461;BME280;35355;49.198;-0.368;2022-11-03T07:25:39;99798.34;;;13.90;79.43
49461;BME280;35355;49.198;-0.368;2022-11-03T07:28:04;99792.88;;;13.90;79.62
49461;BME280;35355;49.198;-0.368;2022-11-03T07:30:33;99792.88;;;13.90;79.49
49461;BME280;35355;49.198;-0.368;2022-11-03T07:33:05;99789.00;;;13.91;79.55
49461;BME280;35355;49.198;-0.368;2022-11-03T07:35:40;99788.19;;;13.90;79.25
49461;BME280;35355;49.198;-0.368;2022-11-03T07:38:17;99779.16;;;13.90;79.52
49461;BME280;35355;49.198;-0.368;2022-11-03T07:40:43;99779.16;;;13.90;79.46
49461;BME280;35355;49.198;-0.368;2022-11-03T07:43:17;99775.28;;;13.91;79.68
49461;BME280;35355;49.198;-0.368;2022-11-03T07:45:56;99772.56;;;13.91;79.42
49461;BME280;35355;49.198;-0.368;2022-11-03T07:48:44;99763.19;;;13.92;79.46
49461;BME280;35355;49.198;-0.368;2022-11-03T07:51:21;99764.81;;;13.93;79.66
49461;BME280;35355;49.198;-0.368;2022-11-03T07:53:50;99764.81;;;13.93;79.50
49461;BME280;35355;49.198;-0.368;2022-11-03T07:58:45;99763.19;;;13.92;79.51
49461;BME280;35355;49.198;-0.368;2022-11-03T08:01:50;99764.00;;;13.92;79.70
49461;BME280;35355;49.198;-0.368;2022-11-03T08:04:22;99767.06;;;13.91;79.46
49461;BME280;35355;49.198;-0.368;2022-11-03T08:06:48;99759.94;;;13.90;79.66
49461;BME280;35355;49.198;-0.368;2022-11-03T08:09:14;99760.75;;;13.90;79.56
49461;BME280;35355;49.198;-0.368;2022-11-03T08:11:39;99757.69;;;13.92;79.64
49461;BME280;35355;49.198;-0.368;2022-11-03T08:14:05;99750.59;;;13.91;79.44
49461;BME280;35355;49.198;-0.368;2022-11-03T08:16:30;99757.38;;;13.93;79.60
49461;BME280;35355;49.198;-0.368;2022-11-03T08:18:55;99762.56;;;13.95;79.47
49461;BME280;35355;49.198;-0.368;2022-11-03T08:21:21;99746.94;;;13.95;79.65
49461;BME280;35355;49.198;-0.368;2022-11-03T08:23:46;99743.88;;;13.97;79.48
49461;BME280;35355;49.198;-0.368;2022-11-03T08:26:11;99757.28;;;13.98;79.60
49461;BME280;35355;49.198;-0.368;2022-11-03T08:28:37;99755.03;;;14.00;79.59
49461;BME280;35355;49.198;-0.368;2022-11-03T08:31:02;99752.28;;;14.00;79.50
49461;BME280;35355;49.198;-0.368;2022-11-03T08:33:31;99747.59;;;14.01;79.58
49461;BME280;35355;49.198;-0.368;2022-11-03T08:35:57;99750.34;;;14.01;79.66
49461;BME280;35355;49.198;-0.368;2022-11-03T08:38:23;99755.84;;;14.01;79.19
49461;BME280;35355;49.198;-0.368;2022-11-03T08:40:49;99755.84;;;14.01;79.65
49461;BME280;35355;49.198;-0.368;2022-11-03T08:43:14;99749.53;;;14.00;79.60
49461;BME280;35355;49.198;-0.368;2022-11-03T08:45:40;99748.53;;;13.96;79.55
49461;BME280;35355;49.198;-0.368;2022-11-03T08:48:06;99748.22;;;13.98;79.51
49461;BME280;35355;49.198;-0.368;2022-11-03T08:50:31;99748.84;;;13.95;79.64
49461;BME280;35355;49.198;-0.368;2022-11-03T08:52:56;99747.56;;;13.92;79.81
49461;BME280;35355;49.198;-0.368;2022-11-03T08:55:22;99744.09;;;13.86;80.07
49461;BME280;35355;49.198;-0.368;2022-11-03T08:57:47;99740.84;;;13.84;80.05
49461;BME280;35355;49.198;-0.368;2022-11-03T09:00:13;99730.50;;;13.81;80.33
49461;BME280;35355;49.198;-0.368;2022-11-03T09:02:41;99728.38;;;13.78;80.55
49461;BME280;35355;49.198;-0.368;2022-11-03T09:05:07;99725.44;;;13.75;80.52
49461;BME280;35355;49.198;-0.368;2022-11-03T09:07:32;99721.38;;;13.72;80.88
49461;BME280;35355;49.198;-0.368;2022-11-03T09:09:57;99715.09;;;13.72;80.78
49461;BME280;35355;49.198;-0.368;2022-11-03T09:12:23;99711.03;;;13.69;81.01
49461;BME280;35355;49.198;-0.368;2022-11-03T09:14:48;99706.16;;;13.66;81.11
49461;BME280;35355;49.198;-0.368;2022-11-03T09:17:14;99699.03;;;13.65;81.16
49461;BME280;35355;49.198;-0.368;2022-11-03T09:19:39;99691.94;;;13.64;81.20
49461;BME280;35355;49.198;-0.368;2022-11-03T09:22:04;99694.19;;;13.62;81.43
49461;BME280;35355;49.198;-0.368;2022-11-03T09:24:30;99694.78;;;13.59;81.62
49461;BME280;35355;49.198;-0.368;2022-11-03T09:26:55;99686.88;;;13.57;81.59
49461;BME280;35355;49.198;-0.368;2022-11-03T09:29:21;99685.88;;;13.53;81.60
49461;BME280;35355;49.198;-0.368;2022-11-03T09:31:46;99686.66;;;13.54;81.92
49461;BME280;35355;49.198;-0.368;2022-11-03T09:34:12;99690.53;;;13.53;81.92
49461;BME280;35355;49.198;-0.368;2022-11-03T09:36:38;99713.78;;;13.55;82.33
49461;BME280;35355;49.198;-0.368;2022-11-03T09:39:03;99727.47;;;13.55;82.31
49461;BME280;35355;49.198;-0.368;2022-11-03T09:41:31;99712.47;;;13.53;82.36
49461;BME280;35355;49.198;-0.368;2022-11-03T09:43:57;99711.97;;;13.50;82.64
49461;BME280;35355;49.198;-0.368;2022-11-03T09:46:23;99707.22;;;13.42;82.49
49461;BME280;35355;49.198;-0.368;2022-11-03T09:48:49;99690.94;;;13.32;82.87
49461;BME280;35355;49.198;-0.368;2022-11-03T09:51:19;99698.47;;;13.26;82.68
49461;BME280;35355;49.198;-0.368;2022-11-03T09:53:46;99710.13;;;13.18;82.78
49461;BME280;35355;49.198;-0.368;2022-11-03T09:56:12;99707.19;;;13.14;83.03
49461;BME280;35355;49.198;-0.368;2022-11-03T09:58:37;99705.56;;;13.13;83.26
49461;BME280;35355;49.198;-0.368;2022-11-03T10:01:04;99699.06;;;13.09;83.39
49461;BME280;35355;49.198;-0.368;2022-11-03T10:03:30;99699.66;;;13.06;83.28
49461;BME280;35355;49.198;-0.368;2022-11-03T10:05:55;99695.31;;;13.05;83.57
49461;BME280;35355;49.198;-0.368;2022-11-03T10:08:26;99689.84;;;13.05;83.45
49461;BME280;35355;49.198;-0.368;2022-11-03T10:10:53;99685.97;;;13.06;83.51
49461;BME280;35355;49.198;-0.368;2022-11-03T10:16:04;99690.34;;;13.07;82.85
49461;BME280;35355;49.198;-0.368;2022-11-03T10:18:31;99682.13;;;13.07;83.88
49461;BME280;35355;49.198;-0.368;2022-11-03T10:21:03;99662.44;;;13.05;83.55
49461;BME280;35355;49.198;-0.368;2022-11-03T10:23:28;99665.19;;;13.05;83.59
49461;BME280;35355;49.198;-0.368;2022-11-03T10:26:02;99670.75;;;13.00;83.49
49461;BME280;35355;49.198;-0.368;2022-11-03T10:28:32;99652.00;;;12.93;83.74
49461;BME280;35355;49.198;-0.368;2022-11-03T10:30:59;99660.00;;;12.90;83.49
49461;BME280;35355;49.198;-0.368;2022-11-03T10:33:27;99669.63;;;12.87;83.72
49461;BME280;35355;49.198;-0.368;2022-11-03T10:35:56;99660.09;;;12.85;83.58
49461;BME280;35355;49.198;-0.368;2022-11-03T10:40:52;99683.22;;;12.78;83.56
49461;BME280;35355;49.198;-0.368;2022-11-03T10:43:17;99709.28;;;12.76;83.54
49461;BME280;35355;49.198;-0.368;2022-11-03T10:45:43;99735.94;;;12.70;83.47
49461;BME280;35355;49.198;-0.368;2022-11-03T10:48:09;99734.31;;;12.69;83.77
49461;BME280;35355;49.198;-0.368;2022-11-03T10:50:41;99713.00;;;12.66;83.73
49461;BME280;35355;49.198;-0.368;2022-11-03T10:53:15;99696.09;;;12.64;83.47
49461;BME280;35355;49.198;-0.368;2022-11-03T10:55:41;99700.72;;;12.63;83.68
49461;BME280;35355;49.198;-0.368;2022-11-03T10:58:07;99693.94;;;12.61;83.71
49461;BME280;35355;49.198;-0.368;2022-11-03T11:00:32;99687.63;;;12.60;84.05
49461;BME280;35355;49.198;-0.368;2022-11-03T11:02:58;99673.66;;;12.62;83.75
49461;BME280;35355;49.198;-0.368;2022-11-03T11:05:25;99673.03;;;12.65;83.96
49461;BME280;35355;49.198;-0.368;2022-11-03T11:07:53;99674.06;;;12.69;83.86
49461;BME280;35355;49.198;-0.368;2022-11-03T11:10:24;99681.38;;;12.74;83.52
49461;BME280;35355;49.198;-0.368;2022-11-03T11:15:47;99676.31;;;12.81;83.59
49461;BME280;35355;49.198;-0.368;2022-11-03T11:21:00;99663.94;;;12.84;83.86
49461;BME280;35355;49.198;-0.368;2022-11-03T11:26:10;99652.38;;;12.87;83.42
49461;BME280;35355;49.198;-0.368;2022-11-03T11:28:43;99663.34;;;12.87;83.41
49461;BME280;35355;49.198;-0.368;2022-11-03T11:31:29;99659.50;;;12.88;83.50
49461;BME280;35355;49.198;-0.368;2022-11-03T11:42:07;99648.31;;;12.84;83.53
49461;BME280;35355;49.198;-0.368;2022-11-03T11:49:48;99654.63;;;12.85;83.88
49461;BME280;35355;49.198;-0.368;2022-11-03T11:52:24;99659.50;;;12.88;83.76
49461;BME280;35355;49.198;-0.368;2022-11-03T11:54:50;99652.38;;;12.87;83.66
49461;BME280;35355;49.198;-0.368;2022-11-03T11:57:20;99651.28;;;12.88;83.73
49461;BME280;35355;49.198;-0.368;2022-11-03T11:59:47;99652.38;;;12.87;83.73
49461;BME280;35355;49.198;-0.368;2022-11-03T12:02:21;99661.41;;;12.87;83.56
49461;BME280;35355;49.198;-0.368;2022-11-03T12:04:48;99668.50;;;12.88;83.74
49461;BME280;35355;49.198;-0.368;2022-11-03T12:07:30;99670.44;;;12.88;83.36
49461;BME280;35355;49.198;-0.368;2022-11-03T12:10:18;99664.97;;;12.88;83.33
49461;BME280;35355;49.198;-0.368;2022-11-03T12:12:46;99658.97;;;12.86;83.48
49461;BME280;35355;49.198;-0.368;2022-11-03T12:18:42;99666.56;;;12.89;83.48
49461;BME280;35355;49.198;-0.368;2022-11-03T12:21:12;99661.94;;;12.89;83.83
49461;BME280;35355;49.198;-0.368;2022-11-03T12:23:57;99657.25;;;12.90;83.69
49461;BME280;35355;49.198;-0.368;2022-11-03T12:28:50;99642.47;;;12.91;83.61
49461;BME280;35355;49.198;-0.368;2022-11-03T12:31:16;99651.16;;;12.93;83.87
49461;BME280;35355;49.198;-0.368;2022-11-03T12:33:41;99649.56;;;12.92;83.51
49461;BME280;35355;49.198;-0.368;2022-11-03T12:36:07;99640.22;;;12.93;83.62
49461;BME280;35355;49.198;-0.368;2022-11-03T12:38:33;99630.88;;;12.94;83.58
49461;BME280;35355;49.198;-0.368;2022-11-03T12:40:58;99631.69;;;12.94;83.92
49461;BME280;35355;49.198;-0.368;2022-11-03T12:43:44;99630.28;;;12.97;83.59
49461;BME280;35355;49.198;-0.368;2022-11-03T12:46:09;99625.59;;;12.97;83.69
49461;BME280;35355;49.198;-0.368;2022-11-03T12:48:35;99631.28;;;13.01;83.85
49461;BME280;35355;49.198;-0.368;2022-11-03T12:51:01;99629.34;;;13.02;83.79
49461;BME280;35355;49.198;-0.368;2022-11-03T12:53:26;99632.63;;;13.04;83.86
49461;BME280;35355;49.198;-0.368;2022-11-03T12:55:51;99638.91;;;13.04;83.47
49461;BME280;35355;49.198;-0.368;2022-11-03T12:58:17;99631.00;;;13.03;83.55
49461;BME280;35355;49.198;-0.368;2022-11-03T13:00:42;99626.44;;;12.98;83.64
49461;BME280;35355;49.198;-0.368;2022-11-03T13:03:07;99629.47;;;12.96;83.60
49461;BME280;35355;49.198;-0.368;2022-11-03T13:05:33;99627.03;;;12.95;83.80
49461;BME280;35355;49.198;-0.368;2022-11-03T13:07:58;99624.78;;;12.97;83.54
49461;BME280;35355;49.198;-0.368;2022-11-03T13:10:23;99622.56;;;12.99;83.78
49461;BME280;35355;49.198;-0.368;2022-11-03T13:12:49;99609.56;;;13.05;83.89
49461;BME280;35355;49.198;-0.368;2022-11-03T13:15:14;99610.09;;;13.07;83.93
49461;BME280;35355;49.198;-0.368;2022-11-03T13:17:40;99621.75;;;13.12;83.76
49461;BME280;35355;49.198;-0.368;2022-11-03T13:20:06;99613.41;;;13.18;83.78
49461;BME280;35355;49.198;-0.368;2022-11-03T13:22:32;99630.34;;;13.20;83.71
49461;BME280;35355;49.198;-0.368;2022-11-03T13:24:57;99633.09;;;13.20;83.85
49461;BME280;35355;49.198;-0.368;2022-11-03T13:27:22;99631.66;;;13.22;83.99
49461;BME280;35355;49.198;-0.368;2022-11-03T13:29:48;99627.31;;;13.21;83.81
49461;BME280;35355;49.198;-0.368;2022-11-03T13:32:13;99646.16;;;13.23;84.09
49461;BME280;35355;49.198;-0.368;2022-11-03T13:34:38;99632.28;;;13.19;83.94
49461;BME280;35355;49.198;-0.368;2022-11-03T13:37:04;99636.44;;;13.16;83.66
49461;BME280;35355;49.198;-0.368;2022-11-03T13:39:29;99648.00;;;13.13;84.22
49461;BME280;35355;49.198;-0.368;2022-11-03T13:41:55;99647.53;;;13.11;83.95
49461;BME280;35355;49.198;-0.368;2022-11-03T13:44:20;99653.63;;;13.08;84.03
49461;BME280;35355;49.198;-0.368;2022-11-03T13:46:45;99660.13;;;13.12;83.99
49461;BME280;35355;49.198;-0.368;2022-11-03T13:49:11;99669.94;;;13.13;83.75
49461;BME280;35355;49.198;-0.368;2022-11-03T14:09:58;99670.34;;;12.32;83.13
49461;BME280;35355;49.198;-0.368;2022-11-03T14:12:24;99654.22;;;12.31;83.30
49461;BME280;35355;49.198;-0.368;2022-11-03T14:14:56;99673.81;;;12.38;83.58
49461;BME280;35355;49.198;-0.368;2022-11-03T14:17:21;99667.75;;;12.41;83.30
49461;BME280;35355;49.198;-0.368;2022-11-03T14:19:48;99663.00;;;12.46;83.48
49461;BME280;35355;49.198;-0.368;2022-11-03T14:22:14;99672.22;;;12.51;83.40
49461;BME280;35355;49.198;-0.368;2022-11-03T14:24:39;99683.91;;;12.56;83.24
49461;BME280;35355;49.198;-0.368;2022-11-03T14:27:05;99679.72;;;12.59;82.91
49461;BME280;35355;49.198;-0.368;2022-11-03T14:29:30;99682.41;;;12.64;83.14
49461;BME280;35355;49.198;-0.368;2022-11-03T14:31:55;99676.81;;;12.69;82.91
49461;BME280;35355;49.198;-0.368;2022-11-03T14:34:21;99690.13;;;12.76;83.09
49461;BME280;35355;49.198;-0.368;2022-11-03T14:36:46;99687.28;;;12.81;82.80
49461;BME280;35355;49.198;-0.368;2022-11-03T14:39:11;99685.06;;;12.83;82.27